createdAt,value
2022-09-23T00:01:19.144Z,13.48
2022-09-23T00:03:46.662Z,12.15
2022-09-23T00:06:17.459Z,12.48
2022-09-23T00:08:44.649Z,14.23
2022-09-23T00:11:14.642Z,13.77
2022-09-23T00:13:44.501Z,14.77
2022-09-23T00:16:14.234Z,14.48
2022-09-23T00:18:42.059Z,10.70
2022-09-23T00:21:14.519Z,17.38
2022-09-23T00:23:42.974Z,10.10
2022-09-23T00:26:13.399Z,14.45
2022-09-23T00:28:40.732Z,14.07
2022-09-23T00:31:13.896Z,14.60
2022-09-23T00:33:41.386Z,11.98
2022-09-23T00:36:11.276Z,15.18
2022-09-23T00:38:38.660Z,12.98
2022-09-23T00:41:06.502Z,12.10
2022-09-23T00:43:57.790Z,13.55
2022-09-23T00:46:48.757Z,13.85
2022-09-23T00:49:27.699Z,12.73
2022-09-23T00:52:02.803Z,12.35
2022-09-23T00:54:30.334Z,13.15
2022-09-23T00:56:59.988Z,15.30
2022-09-23T00:59:29.042Z,11.93
2022-09-23T01:01:57.963Z,12.88
2022-09-23T01:04:27.425Z,13.80
2022-09-23T01:06:54.606Z,13.70
2022-09-23T01:09:23.151Z,15.07
2022-09-23T01:12:04.171Z,13.95
2022-09-23T01:14:37.129Z,14.43
2022-09-23T01:20:13.837Z,11.75
2022-09-23T01:22:58.655Z,11.43
2022-09-23T01:26:00.238Z,13.18
2022-09-23T01:28:46.182Z,12.35
2022-09-23T01:31:36.352Z,11.57
2022-09-23T01:34:24.261Z,14.38
2022-09-23T01:37:08.320Z,15.95
2022-09-23T01:39:40.363Z,13.55
2022-09-23T01:42:17.381Z,12.73
2022-09-23T01:44:55.096Z,12.02
2022-09-23T01:47:37.533Z,10.95
2022-09-23T01:50:28.825Z,11.85
2022-09-23T01:53:01.791Z,11.55
2022-09-23T01:58:03.491Z,14.13
2022-09-23T02:00:34.975Z,10.27
2022-09-23T02:03:07.555Z,13.68
2022-09-23T02:05:37.926Z,12.23
2022-09-23T02:08:31.843Z,11.68
2022-09-23T02:11:14.108Z,10.95
2022-09-23T02:13:55.906Z,10.93
2022-09-23T02:16:39.437Z,15.43
2022-09-23T02:19:23.922Z,12.88
2022-09-23T02:21:58.896Z,23.60
2022-09-23T02:24:31.106Z,13.52
2022-09-23T02:27:21.413Z,16.50
2022-09-23T02:29:51.205Z,12.32
2022-09-23T02:32:31.704Z,10.25
2022-09-23T02:35:11.661Z,10.27
2022-09-23T02:38:05.767Z,16.00
2022-09-23T02:40:46.002Z,10.25
2022-09-23T02:43:19.884Z,12.73
2022-09-23T02:45:47.470Z,9.48
2022-09-23T02:48:22.764Z,10.35
2022-09-23T02:50:49.743Z,10.77
2022-09-23T02:53:17.291Z,8.57
2022-09-23T02:55:44.237Z,12.60
2022-09-23T02:58:14.083Z,12.40
2022-09-23T03:01:05.067Z,9.80
2022-09-23T03:03:53.828Z,9.57
2022-09-23T03:06:45.634Z,9.48
2022-09-23T03:09:19.954Z,12.48
2022-09-23T03:11:52.991Z,8.93
2022-09-23T03:14:29.586Z,8.23
2022-09-23T03:17:04.140Z,9.65
2022-09-23T03:19:51.182Z,10.77
2022-09-23T03:22:36.043Z,8.25
2022-09-23T03:25:09.059Z,9.90
2022-09-23T03:30:06.880Z,8.60
2022-09-23T03:32:36.203Z,10.75
2022-09-23T03:35:05.230Z,8.52
2022-09-23T03:37:49.378Z,9.30
2022-09-23T03:40:32.558Z,7.47
2022-09-23T03:43:01.464Z,7.55
2022-09-23T03:45:32.264Z,7.47
2022-09-23T03:47:59.471Z,9.25
2022-09-23T03:50:26.743Z,9.32
2022-09-23T03:52:54.331Z,7.43
2022-09-23T03:55:21.459Z,6.78
2022-09-23T03:57:48.650Z,9.32
2022-09-23T04:00:16.277Z,7.63
2022-09-23T04:02:44.153Z,7.15
2022-09-23T04:05:12.698Z,7.38
2022-09-23T04:07:40.094Z,5.45
2022-09-23T04:10:07.741Z,7.85
2022-09-23T04:12:34.614Z,7.90
2022-09-23T04:15:01.822Z,7.05
2022-09-23T04:17:28.749Z,9.07
2022-09-23T04:19:55.658Z,8.02
2022-09-23T04:22:22.720Z,6.65
2022-09-23T04:24:49.705Z,8.93
2022-09-23T04:27:16.876Z,7.75
2022-09-23T04:29:44.145Z,7.68
2022-09-23T04:32:11.365Z,6.57
2022-09-23T04:34:38.324Z,6.75
2022-09-23T04:37:05.687Z,5.43
2022-09-23T04:39:32.803Z,5.90
2022-09-23T04:41:59.738Z,5.40
2022-09-23T04:44:28.362Z,5.18
2022-09-23T04:46:55.331Z,5.88
2022-09-23T04:49:22.251Z,5.90
2022-09-23T04:51:49.314Z,6.80
2022-09-23T04:54:16.275Z,4.63
2022-09-23T04:56:43.278Z,5.63
2022-09-23T04:59:10.419Z,5.47
2022-09-23T05:01:38.331Z,7.03
2022-09-23T05:04:07.979Z,4.93
2022-09-23T05:06:36.284Z,6.20
2022-09-23T05:09:05.913Z,6.88
2022-09-23T05:11:33.840Z,6.05
2022-09-23T05:14:01.103Z,6.55
2022-09-23T05:16:28.100Z,8.13
2022-09-23T05:18:55.087Z,6.55
2022-09-23T05:21:24.782Z,9.30
2022-09-23T05:23:55.362Z,9.63
2022-09-23T05:26:27.833Z,8.18
2022-09-23T05:28:55.504Z,10.95
2022-09-23T05:31:25.438Z,8.85
2022-09-23T05:33:57.726Z,13.70
2022-09-23T05:36:26.097Z,12.60
2022-09-23T05:38:53.400Z,10.55
2022-09-23T05:41:23.116Z,10.93
2022-09-23T05:43:55.370Z,7.35
2022-09-23T05:46:32.066Z,9.05
2022-09-23T05:49:03.064Z,7.70
2022-09-23T05:51:32.346Z,10.90
2022-09-23T05:54:00.484Z,10.75
2022-09-23T05:56:28.503Z,13.88
2022-09-23T05:58:57.857Z,18.13
2022-09-23T06:01:27.984Z,16.20
2022-09-23T06:03:56.811Z,18.02
2022-09-23T06:06:30.744Z,17.73
2022-09-23T06:08:59.330Z,15.88
2022-09-23T06:11:28.613Z,14.18
2022-09-23T06:14:01.117Z,12.95
2022-09-23T06:16:31.065Z,12.13
2022-09-23T06:19:05.095Z,13.05
2022-09-23T06:21:35.671Z,12.07
2022-09-23T06:24:03.131Z,15.25
2022-09-23T06:26:33.632Z,11.70
2022-09-23T06:29:04.985Z,11.70
2022-09-23T06:31:33.057Z,12.05
2022-09-23T06:34:09.927Z,12.77
2022-09-23T06:36:45.894Z,20.42
2022-09-23T06:41:44.027Z,20.30
2022-09-23T06:44:11.079Z,11.38
2022-09-23T06:46:38.132Z,8.10
2022-09-23T06:49:05.325Z,6.82
2022-09-23T06:51:32.595Z,8.05
2022-09-23T06:53:59.540Z,9.18
2022-09-23T06:56:26.821Z,6.95
2022-09-23T06:58:54.264Z,7.22
2022-09-23T07:01:22.306Z,5.70
2022-09-23T07:03:49.755Z,6.20
2022-09-23T07:06:17.469Z,4.97
2022-09-23T07:08:47.211Z,5.53
2022-09-23T07:11:15.978Z,5.00
2022-09-23T07:13:42.891Z,4.80
2022-09-23T07:16:11.102Z,5.45
2022-09-23T07:18:39.224Z,4.97
2022-09-23T07:21:09.045Z,5.22
2022-09-23T07:23:37.762Z,3.78
2022-09-23T07:26:05.448Z,5.38
2022-09-23T07:28:32.565Z,5.40
2022-09-23T07:31:04.617Z,3.97
2022-09-23T07:33:33.302Z,4.55
2022-09-23T07:36:05.630Z,3.42
2022-09-23T07:38:32.814Z,4.75
2022-09-23T07:41:08.973Z,3.33
2022-09-23T07:43:37.884Z,3.13
2022-09-23T07:46:08.333Z,2.60
2022-09-23T07:48:36.097Z,2.60
2022-09-23T07:51:09.207Z,2.65
2022-09-23T07:53:37.003Z,2.05
2022-09-23T07:56:06.441Z,2.95
2022-09-23T07:58:34.788Z,2.70
2022-09-23T08:01:10.356Z,2.42
2022-09-23T08:03:38.679Z,2.50
2022-09-23T08:06:07.262Z,2.63
2022-09-23T08:08:35.495Z,4.38
2022-09-23T08:11:04.990Z,2.45
2022-09-23T08:13:32.640Z,2.28
2022-09-23T08:15:59.873Z,3.22
2022-09-23T08:18:27.334Z,2.72
2022-09-23T08:20:54.293Z,3.10
2022-09-23T08:23:21.340Z,3.40
2022-09-23T08:25:48.700Z,3.20
2022-09-23T08:28:18.516Z,2.58
2022-09-23T08:30:49.083Z,2.75
2022-09-23T08:33:20.939Z,1.10
2022-09-23T08:35:50.963Z,2.15
2022-09-23T08:38:18.930Z,1.90
2022-09-23T08:40:49.611Z,1.90
2022-09-23T08:43:31.512Z,1.50
2022-09-23T08:46:04.345Z,1.77
2022-09-23T08:48:36.138Z,0.73
2022-09-23T08:51:12.128Z,0.90
2022-09-23T08:53:39.476Z,1.15
2022-09-23T08:56:10.936Z,1.20
2022-09-23T08:59:00.953Z,0.70
2022-09-23T09:01:36.729Z,0.90
2022-09-23T09:04:17.185Z,0.68
2022-09-23T09:10:18.784Z,0.65
2022-09-23T09:13:07.515Z,2.97
2022-09-23T09:15:49.608Z,1.00
2022-09-23T09:18:20.026Z,2.22
2022-09-23T09:20:57.317Z,0.57
2022-09-23T09:23:51.961Z,1.08
2022-09-23T09:26:25.372Z,1.30
2022-09-23T09:29:23.459Z,1.48
2022-09-23T09:31:50.510Z,2.10
2022-09-23T09:34:49.307Z,2.00
2022-09-23T09:37:53.543Z,1.02
2022-09-23T09:40:21.056Z,0.50
2022-09-23T09:42:50.061Z,1.35
2022-09-23T09:45:57.685Z,0.75
2022-09-23T09:48:50.848Z,0.45
2022-09-23T09:51:19.055Z,0.40
2022-09-23T09:53:46.274Z,1.75
2022-09-23T09:56:16.468Z,0.60
2022-09-23T09:58:46.522Z,1.27
2022-09-23T10:01:31.750Z,1.65
2022-09-23T10:04:27.358Z,1.02
2022-09-23T10:07:08.034Z,1.05
2022-09-23T10:09:37.234Z,1.00
2022-09-23T10:12:18.522Z,0.82
2022-09-23T10:14:51.328Z,0.88
2022-09-23T10:17:25.275Z,0.63
2022-09-23T10:20:00.400Z,2.22
2022-09-23T10:22:39.739Z,0.65
2022-09-23T10:25:19.229Z,1.38
2022-09-23T10:27:46.834Z,1.13
2022-09-23T10:30:24.401Z,1.02
2022-09-23T10:32:54.884Z,1.08
2022-09-23T10:35:24.497Z,1.30
2022-09-23T10:37:57.872Z,1.58
2022-09-23T10:40:54.176Z,0.68
2022-09-23T10:43:50.632Z,1.63
2022-09-23T10:46:39.703Z,1.00
2022-09-23T10:49:18.602Z,1.27
2022-09-23T10:51:56.591Z,1.38
2022-09-23T10:54:40.315Z,1.10
2022-09-23T10:57:42.803Z,1.25
2022-09-23T11:00:22.379Z,1.40
2022-09-23T11:03:02.905Z,1.00
2022-09-23T11:05:46.646Z,0.82
2022-09-23T11:08:41.080Z,0.95
2022-09-23T11:11:08.859Z,0.50
2022-09-23T11:14:17.215Z,0.57
2022-09-23T11:16:58.157Z,0.35
2022-09-23T11:19:33.802Z,0.52
2022-09-23T11:22:15.995Z,0.35
2022-09-23T11:25:12.313Z,0.43
2022-09-23T11:27:54.046Z,0.80
2022-09-23T11:30:21.472Z,0.85
2022-09-23T11:35:56.147Z,0.38
2022-09-23T11:38:31.788Z,0.80
2022-09-23T11:41:23.461Z,1.85
2022-09-23T11:43:55.827Z,0.73
2022-09-23T11:46:36.072Z,2.15
2022-09-23T11:49:21.303Z,1.38
2022-09-23T11:51:53.983Z,0.80
2022-09-23T11:54:28.032Z,0.95
2022-09-23T11:57:01.119Z,1.08
2022-09-23T12:02:31.061Z,0.63
2022-09-23T12:05:22.728Z,0.68
2022-09-23T12:07:59.739Z,0.20
2022-09-23T12:10:36.607Z,0.77
2022-09-23T12:13:16.156Z,0.93
2022-09-23T12:15:43.021Z,1.10
2022-09-23T12:18:25.442Z,0.68
2022-09-23T12:21:39.111Z,0.88
2022-09-23T12:24:10.776Z,0.90
2022-09-23T12:26:39.119Z,3.47
2022-09-23T12:29:06.762Z,2.92
2022-09-23T12:31:40.328Z,0.55
2022-09-23T12:34:29.926Z,0.57
2022-09-23T12:37:04.809Z,0.40
2022-09-23T12:39:35.519Z,1.98
2022-09-23T12:42:15.355Z,1.20
2022-09-23T12:44:45.110Z,2.10
2022-09-23T12:47:15.306Z,0.93
2022-09-23T12:49:43.723Z,1.02
2022-09-23T12:52:25.208Z,1.98
2022-09-23T12:54:56.662Z,0.85
2022-09-23T12:57:35.404Z,0.77
2022-09-23T13:00:11.445Z,0.57
2022-09-23T13:03:21.551Z,1.92
2022-09-23T13:06:16.960Z,0.70
2022-09-23T13:08:45.309Z,0.40
2022-09-23T13:11:27.424Z,0.75
2022-09-23T13:13:56.620Z,0.52
2022-09-23T13:16:30.858Z,0.93
2022-09-23T13:19:23.383Z,1.23
2022-09-23T13:21:51.363Z,0.85
2022-09-23T13:24:34.888Z,1.23
2022-09-23T13:27:02.204Z,3.38
2022-09-23T13:29:56.377Z,0.90
2022-09-23T13:32:53.741Z,1.48
2022-09-23T13:35:29.817Z,1.20
2022-09-23T13:37:57.557Z,0.40
2022-09-23T13:40:27.562Z,1.30
2022-09-23T13:43:00.095Z,0.98
2022-09-23T13:45:28.786Z,0.73
2022-09-23T13:48:06.129Z,1.17
2022-09-23T13:50:36.547Z,0.93
2022-09-23T13:53:13.316Z,0.82
2022-09-23T13:55:41.421Z,0.93
2022-09-23T13:58:17.396Z,0.47
2022-09-23T14:00:45.311Z,1.27
2022-09-23T14:03:36.572Z,0.57
2022-09-23T14:06:14.837Z,0.98
2022-09-23T14:08:45.723Z,0.43
2022-09-23T14:11:21.576Z,0.73
2022-09-23T14:13:54.269Z,0.88
2022-09-23T14:16:25.222Z,1.52
2022-09-23T14:18:56.287Z,1.15
2022-09-23T14:21:27.281Z,1.05
2022-09-23T14:23:54.282Z,0.90
2022-09-23T14:26:24.115Z,0.95
2022-09-23T14:28:51.914Z,0.82
2022-09-23T14:31:19.021Z,0.85
2022-09-23T14:33:46.927Z,0.93
2022-09-23T14:36:36.042Z,2.70
2022-09-23T14:39:10.192Z,2.67
2022-09-23T14:41:41.080Z,0.60
2022-09-23T14:44:16.158Z,1.60
2022-09-23T14:46:56.571Z,1.00
2022-09-23T14:49:24.522Z,0.68
2022-09-23T14:52:00.717Z,1.35
2022-09-23T14:54:39.487Z,1.23
2022-09-23T14:57:39.674Z,1.90
2022-09-23T15:00:06.688Z,3.33
2022-09-23T15:02:39.546Z,2.17
2022-09-23T15:05:47.800Z,1.95
2022-09-23T15:08:21.292Z,0.95
2022-09-23T15:10:49.104Z,2.88
2022-09-23T15:13:23.266Z,1.17
2022-09-23T15:15:54.289Z,0.70
2022-09-23T15:18:30.132Z,1.25
2022-09-23T15:21:09.270Z,1.10
2022-09-23T15:23:46.111Z,1.40
2022-09-23T15:26:24.613Z,0.98
2022-09-23T15:28:54.175Z,1.95
2022-09-23T15:31:26.513Z,3.75
2022-09-23T15:33:53.840Z,1.85
2022-09-23T15:36:25.972Z,2.20
2022-09-23T15:38:53.575Z,1.27
2022-09-23T15:41:22.064Z,0.98
2022-09-23T15:43:48.883Z,0.90
2022-09-23T15:46:26.121Z,3.33
2022-09-23T15:49:03.070Z,1.30
2022-09-23T15:51:30.529Z,1.30
2022-09-23T15:53:58.709Z,0.80
2022-09-23T15:56:27.146Z,1.70
2022-09-23T15:58:54.273Z,3.92
2022-09-23T16:01:28.539Z,2.65
2022-09-23T16:03:55.924Z,3.08
2022-09-23T16:06:24.380Z,2.65
2022-09-23T16:08:52.307Z,4.80
2022-09-23T16:11:22.907Z,2.58
2022-09-23T16:13:51.910Z,3.55
2022-09-23T16:16:22.634Z,2.88
2022-09-23T16:18:51.249Z,1.85
2022-09-23T16:21:20.942Z,1.13
2022-09-23T16:23:50.073Z,2.58
2022-09-23T16:26:21.595Z,1.60
2022-09-23T16:28:51.189Z,1.52
2022-09-23T16:31:19.324Z,3.83
2022-09-23T16:33:47.713Z,2.40
2022-09-23T16:36:34.141Z,2.33
2022-09-23T16:39:04.196Z,1.42
2022-09-23T16:41:32.600Z,2.45
2022-09-23T16:44:01.013Z,1.75
2022-09-23T16:46:29.804Z,2.03
2022-09-23T16:48:57.647Z,3.15
2022-09-23T16:51:30.728Z,16.70
2022-09-23T16:53:59.449Z,13.95
2022-09-23T16:56:29.237Z,7.47
2022-09-23T16:58:57.144Z,27.25
2022-09-23T17:01:46.241Z,14.82
2022-09-23T17:04:16.371Z,13.10
2022-09-23T17:06:50.154Z,13.82
2022-09-23T17:09:18.958Z,15.55
2022-09-23T17:11:49.237Z,9.50
2022-09-23T17:14:16.461Z,9.95
2022-09-23T17:16:43.583Z,18.40
2022-09-23T17:19:11.935Z,12.65
2022-09-23T17:21:39.381Z,9.82
2022-09-23T17:24:07.046Z,5.80
2022-09-23T17:26:34.828Z,6.43
2022-09-23T17:29:02.177Z,6.50
2022-09-23T17:31:29.427Z,9.40
2022-09-23T17:33:56.643Z,8.15
2022-09-23T17:36:23.549Z,8.07
2022-09-23T17:38:53.549Z,10.23
2022-09-23T17:41:21.698Z,10.73
2022-09-23T17:43:54.363Z,11.25
2022-09-23T17:46:21.500Z,8.90
2022-09-23T17:48:48.660Z,6.20
2022-09-23T17:51:18.843Z,7.18
2022-09-23T17:53:47.841Z,6.07
2022-09-23T17:56:16.532Z,7.20
2022-09-23T17:58:45.077Z,8.40
2022-09-23T18:01:23.570Z,7.82
2022-09-23T18:03:58.652Z,6.07
2022-09-23T18:06:28.367Z,7.80
2022-09-23T18:08:56.133Z,6.63
2022-09-23T18:11:27.991Z,7.25
2022-09-23T18:13:58.411Z,7.53
2022-09-23T18:16:28.123Z,9.18
2022-09-23T18:19:05.287Z,9.30
2022-09-23T18:21:37.682Z,5.68
2022-09-23T18:26:52.864Z,8.30
2022-09-23T18:29:19.819Z,7.18
2022-09-23T18:31:51.000Z,5.45
2022-09-23T18:34:18.606Z,7.53
2022-09-23T18:36:45.820Z,6.63
2022-09-23T18:39:13.557Z,7.43
2022-09-23T18:41:41.186Z,7.00
2022-09-23T18:44:08.801Z,9.43
2022-09-23T18:46:36.016Z,11.38
2022-09-23T18:49:22.399Z,9.95
2022-09-23T18:51:52.315Z,11.88
2022-09-23T18:54:19.858Z,10.27
2022-09-23T18:56:47.085Z,9.25
2022-09-23T18:59:17.746Z,9.38
2022-09-23T19:01:45.901Z,5.38
2022-09-23T19:04:15.510Z,5.25
2022-09-23T19:06:42.608Z,6.80
2022-09-23T19:09:10.488Z,8.57
2022-09-23T19:11:37.718Z,7.85
2022-09-23T19:14:07.432Z,7.38
2022-09-23T19:16:36.178Z,9.00
2022-09-23T19:19:05.022Z,6.40
2022-09-23T19:21:32.789Z,6.95
2022-09-23T19:24:03.898Z,12.18
2022-09-23T19:26:37.603Z,9.30
2022-09-23T19:29:08.550Z,12.25
2022-09-23T19:31:41.798Z,12.68
2022-09-23T19:34:13.996Z,9.65
2022-09-23T19:36:43.281Z,12.68
2022-09-23T19:39:23.037Z,15.10
2022-09-23T19:41:51.167Z,15.52
2022-09-23T19:44:20.051Z,18.58
2022-09-23T19:46:53.664Z,14.70
2022-09-23T19:49:24.826Z,14.57
2022-09-23T19:51:55.341Z,13.68
2022-09-23T19:54:23.248Z,14.50
2022-09-23T19:56:52.836Z,19.02
2022-09-23T19:59:19.854Z,16.20
2022-09-23T20:01:48.314Z,18.15
2022-09-23T20:04:17.166Z,17.42
2022-09-23T20:06:45.848Z,18.25
2022-09-23T20:09:13.068Z,17.52
2022-09-23T20:11:44.165Z,14.32
2022-09-23T20:14:11.923Z,17.45
2022-09-23T20:16:39.216Z,21.00
2022-09-23T20:19:06.776Z,17.45
2022-09-23T20:21:34.327Z,18.38
2022-09-23T20:24:03.272Z,20.17
2022-09-23T20:26:49.171Z,19.95
2022-09-23T20:29:16.170Z,18.45
2022-09-23T20:31:43.908Z,19.98
2022-09-23T20:34:11.200Z,25.33
2022-09-23T20:36:41.175Z,22.15
2022-09-23T20:39:10.207Z,19.52
2022-09-23T20:41:39.151Z,22.67
2022-09-23T20:44:09.689Z,21.02
2022-09-23T20:46:36.936Z,18.02
2022-09-23T20:49:04.393Z,19.20
2022-09-23T20:51:33.375Z,26.17
2022-09-23T20:54:01.254Z,18.00
2022-09-23T20:56:28.651Z,19.60
2022-09-23T20:59:00.063Z,19.38
2022-09-23T21:01:27.752Z,19.95
2022-09-23T21:03:55.974Z,17.67
2022-09-23T21:06:25.619Z,16.60
2022-09-23T21:08:54.624Z,17.38
2022-09-23T21:11:22.000Z,14.23
2022-09-23T21:13:52.039Z,14.60
2022-09-23T21:16:22.731Z,20.10
2022-09-23T21:18:51.628Z,18.98
2022-09-23T21:21:19.781Z,18.90
2022-09-23T21:23:47.983Z,20.40
2022-09-23T21:26:23.542Z,16.02
2022-09-23T21:28:53.215Z,16.42
2022-09-23T21:31:28.008Z,20.35
2022-09-23T21:33:56.210Z,17.65
2022-09-23T21:36:24.747Z,20.30
2022-09-23T21:38:52.698Z,15.75
2022-09-23T21:41:20.204Z,20.40
2022-09-23T21:43:47.489Z,21.73
2022-09-23T21:46:17.388Z,18.23
2022-09-23T21:48:45.161Z,16.75
2022-09-23T21:51:15.498Z,16.23
2022-09-23T21:53:43.980Z,15.98
2022-09-23T21:56:20.507Z,17.80
2022-09-23T21:58:48.324Z,16.33
2022-09-23T22:01:18.267Z,16.17
2022-09-23T22:03:50.870Z,15.07
2022-09-23T22:08:59.140Z,15.07
2022-09-23T22:11:50.808Z,14.38
2022-09-23T22:14:20.170Z,16.50
2022-09-23T22:16:47.327Z,20.10
2022-09-23T22:19:15.626Z,16.65
2022-09-23T22:21:45.497Z,20.13
2022-09-23T22:24:13.381Z,18.60
2022-09-23T22:26:44.542Z,19.05
2022-09-23T22:29:32.754Z,18.95
2022-09-23T22:32:20.862Z,18.98
2022-09-23T22:34:52.595Z,17.50
2022-09-23T22:37:28.245Z,18.58
2022-09-23T22:39:55.191Z,23.30
2022-09-23T22:42:22.727Z,20.13
2022-09-23T22:44:51.306Z,18.63
2022-09-23T22:47:19.704Z,21.13
2022-09-23T22:49:47.904Z,17.58
2022-09-23T22:52:21.134Z,20.58
2022-09-23T22:54:48.433Z,18.17
2022-09-23T22:57:15.666Z,20.08
2022-09-23T22:59:47.942Z,14.90
2022-09-23T23:02:17.859Z,24.48
2022-09-23T23:04:46.968Z,18.33
2022-09-23T23:07:15.399Z,18.65
2022-09-23T23:09:42.514Z,15.48
2022-09-23T23:12:09.397Z,17.42
2022-09-23T23:14:36.385Z,17.88
2022-09-23T23:17:07.293Z,16.27
2022-09-23T23:19:35.865Z,15.10
2022-09-23T23:22:04.334Z,16.40
2022-09-23T23:24:32.410Z,14.30
2022-09-23T23:26:59.330Z,17.75
2022-09-23T23:29:26.197Z,17.30
2022-09-23T23:31:53.330Z,17.95
2022-09-23T23:34:23.175Z,17.73
2022-09-23T23:36:55.163Z,14.15
2022-09-23T23:39:23.972Z,17.83
2022-09-23T23:41:55.485Z,15.07
2022-09-23T23:44:23.867Z,17.52
2022-09-23T23:46:51.226Z,13.70
2022-09-23T23:49:18.198Z,21.15
2022-09-23T23:51:45.476Z,17.45
2022-09-23T23:54:12.697Z,16.02
2022-09-23T23:56:39.634Z,18.92
2022-09-23T23:59:06.763Z,21.30
